Time;durP1;ratioP1;P1;durP2;ratioP2;P2;SDS_P1;SDS_P2;PMS_P1;PMS_P2;Temp;Humidity;BMP_temperature;BMP_pressure;BME280_temperature;BME280_humidity;BME280_pressure;Samples;Min_cycle;Max_cycle;Signal;HPM_P1;HPM_P2
2023/04/13 00:01:12;;;;;;;1.30;0.60;;;;;;;6.02;100.00;99416.75;5090659;28;20047;-36
2023/04/13 00:03:56;;;;;;;2.30;0.90;;;;;;;6.01;100.00;99420.50;5089169;28;20025;-36
2023/04/13 00:06:22;;;;;;;3.50;1.00;;;;;;;6.00;100.00;99418.81;5090311;28;20368;-36
2023/04/13 00:08:47;;;;;;;2.37;0.70;;;;;;;5.98;100.00;99412.09;5090054;28;20016;-36
2023/04/13 00:11:12;;;;;;;3.90;1.33;;;;;;;5.99;100.00;99419.88;5089473;28;20507;-34
2023/04/13 00:13:41;;;;;;;2.00;0.80;;;;;;;5.92;100.00;99420.03;5075904;28;20025;-36
2023/04/13 00:16:11;;;;;;;3.42;1.02;;;;;;;5.96;100.00;99411.50;5076638;28;20592;-36
2023/04/13 00:18:36;;;;;;;1.65;0.70;;;;;;;5.88;100.00;99396.56;5076001;28;20035;-36
2023/04/13 00:21:02;;;;;;;3.45;1.70;;;;;;;5.89;100.00;99408.91;5075972;28;20020;-36
2023/04/13 00:26:49;;;;;;;1.50;0.80;;;;;;;5.93;100.00;99418.97;5076149;28;20151;-36
2023/04/13 00:29:14;;;;;;;1.73;0.70;;;;;;;5.98;100.00;99409.41;5076396;28;20096;-36
2023/04/13 00:31:39;;;;;;;3.20;0.97;;;;;;;6.00;100.00;99409.97;5076955;28;20189;-36
2023/04/13 00:34:05;;;;;;;1.90;0.63;;;;;;;6.04;100.00;99411.13;5076442;28;20028;-36
2023/04/13 00:36:31;;;;;;;2.60;0.80;;;;;;;6.05;100.00;99407.38;5076522;28;20499;-36
2023/04/13 00:38:57;;;;;;;3.63;0.70;;;;;;;6.07;100.00;99402.63;5075588;28;20031;-35
2023/04/13 00:41:24;;;;;;;3.10;1.02;;;;;;;6.05;100.00;99402.03;5075535;28;20016;-35
2023/04/13 00:43:51;;;;;;;3.08;0.70;;;;;;;6.07;100.00;99413.34;5075251;28;20507;-35
2023/04/13 00:46:17;;;;;;;2.20;0.95;;;;;;;6.07;100.00;99399.94;5076073;28;20471;-35
2023/04/13 00:48:44;;;;;;;3.50;0.95;;;;;;;6.02;100.00;99389.91;5075505;28;20487;-36
2023/04/13 00:51:10;;;;;;;3.63;0.95;;;;;;;6.03;100.00;99402.28;5075727;28;20055;-35
2023/04/13 00:53:36;;;;;;;;;;;;;;;6.16;100.00;99402.03;5075786;28;20058;-35
2023/04/13 00:56:04;;;;;;;1.92;0.55;;;;;;;6.14;100.00;99405.97;5075178;28;20299;-35
2023/04/13 00:58:31;;;;;;;2.13;0.70;;;;;;;6.11;100.00;99403.78;5075302;28;20021;-35
2023/04/13 01:00:56;;;;;;;2.78;0.88;;;;;;;6.10;100.00;99399.44;5075873;28;20113;-35
2023/04/13 01:03:21;;;;;;;3.07;1.10;;;;;;;6.12;100.00;99394.69;5075246;28;20440;-35
2023/04/13 01:06:20;;;;;;;4.90;1.17;;;;;;;6.05;100.00;99383.25;5075978;28;20070;-35
2023/04/13 01:09:14;;;;;;;5.28;0.85;;;;;;;6.14;100.00;99396.06;5075222;28;20044;-36
2023/04/13 01:11:51;;;;;;;3.22;0.90;;;;;;;6.13;100.00;99399.78;5073959;28;20541;-35
2023/04/13 01:14:29;;;;;;;2.10;0.90;;;;;;;6.16;100.00;99395.84;5075546;28;20028;-35
2023/04/13 01:17:01;;;;;;;3.38;1.02;;;;;;;6.09;100.00;99385.22;5074953;28;20028;-35
2023/04/13 01:20:07;;;;;;;4.22;0.93;;;;;;;6.17;100.00;99406.31;5075490;28;20028;-35
2023/04/13 01:22:34;;;;;;;2.38;0.70;;;;;;;6.15;100.00;99404.94;5052686;28;20492;-38
2023/04/13 01:25:04;;;;;;;3.17;1.00;;;;;;;6.15;100.00;99395.03;5071003;28;20037;-36
2023/04/13 01:27:43;;;;;;;2.28;0.80;;;;;;;6.17;100.00;99402.81;5075223;28;20028;-36
2023/04/13 01:30:09;;;;;;;3.63;0.95;;;;;;;6.17;100.00;99398.28;5074756;28;20020;-36
2023/04/13 01:32:37;;;;;;;3.22;0.95;;;;;;;6.20;100.00;99405.06;5074249;28;20027;-36
2023/04/13 01:35:05;;;;;;;3.67;0.98;;;;;;;6.22;100.00;99404.81;5074608;28;20020;-36
2023/04/13 01:37:32;;;;;;;2.78;0.82;;;;;;;6.18;100.00;99404.47;5074525;28;20020;-36
2023/04/13 01:39:57;;;;;;;3.17;0.90;;;;;;;6.20;100.00;99410.41;5074497;28;20103;-36
2023/04/13 01:42:23;;;;;;;3.20;1.00;;;;;;;6.14;100.00;99412.16;5074536;28;20100;-36
2023/04/13 01:44:49;;;;;;;2.77;1.00;;;;;;;6.20;100.00;99426.53;5074456;28;20029;-36
2023/04/13 01:47:19;;;;;;;3.50;1.00;;;;;;;6.20;100.00;99439.94;5074376;28;20036;-36
2023/04/13 01:59:49;;;;;;;4.03;1.20;;;;;;;6.12;100.00;99443.00;5074552;28;20077;-36
2023/04/13 02:02:15;;;;;;;3.10;1.13;;;;;;;6.19;100.00;99457.09;5074664;28;20032;-36
2023/04/13 02:04:41;;;;;;;3.75;1.20;;;;;;;6.17;100.00;99473.44;5074749;28;20099;-36
2023/04/13 02:07:07;;;;;;;3.85;1.13;;;;;;;6.15;100.00;99470.19;5074204;28;20058;-36
2023/04/13 02:09:33;;;;;;;3.75;1.67;;;;;;;6.17;100.00;99467.25;5074789;28;20024;-36
2023/04/13 02:11:58;;;;;;;4.38;1.25;;;;;;;6.16;100.00;99468.31;5074145;28;20368;-36
2023/04/13 02:14:24;;;;;;;2.50;1.00;;;;;;;6.19;100.00;99470.50;5074765;28;20023;-36
2023/04/13 02:16:49;;;;;;;3.35;1.20;;;;;;;6.17;100.00;99469.94;5074905;28;20017;-36
2023/04/13 02:19:15;;;;;;;4.00;1.40;;;;;;;6.18;100.00;99471.56;5074636;28;20108;-36
2023/04/13 02:21:40;;;;;;;4.10;1.20;;;;;;;6.14;100.00;99483.81;5072751;28;20017;-36
2023/04/13 02:24:06;;;;;;;4.80;1.70;;;;;;;6.05;100.00;99478.00;5074764;28;20024;-36
2023/04/13 02:26:32;;;;;;;3.55;1.10;;;;;;;6.15;100.00;99480.09;5074016;28;20029;-36
2023/04/13 02:28:58;;;;;;;4.15;1.42;;;;;;;6.16;100.00;99493.28;5073889;28;20107;-36
2023/04/13 02:31:23;;;;;;;6.07;1.60;;;;;;;6.18;100.00;99493.84;5073706;28;20473;-36
2023/04/13 02:33:50;;;;;;;4.60;1.20;;;;;;;6.22;100.00;99513.00;5074082;28;20035;-36
2023/04/13 02:36:17;;;;;;;5.80;1.65;;;;;;;6.23;100.00;99525.34;5073554;28;20266;-35
2023/04/13 02:38:44;;;;;;;3.63;1.50;;;;;;;6.26;100.00;99534.81;5073467;28;20024;-36
2023/04/13 02:41:09;;;;;;;3.92;1.92;;;;;;;6.24;100.00;99532.34;5073783;28;20047;-36
2023/04/13 02:43:35;;;;;;;4.88;1.45;;;;;;;6.22;100.00;99533.66;5073677;28;20024;-36
2023/04/13 02:46:00;;;;;;;3.00;1.43;;;;;;;6.28;100.00;99549.63;5074359;28;20029;-36
2023/04/13 02:48:25;;;;;;;3.65;1.40;;;;;;;6.26;100.00;99549.06;5073610;28;20028;-36
2023/04/13 02:50:52;;;;;;;3.83;1.57;;;;;;;6.23;100.00;99546.84;5073935;28;20025;-36
2023/04/13 02:53:18;;;;;;;2.10;1.02;;;;;;;6.22;100.00;99549.75;5073598;28;20345;-36
2023/04/13 02:55:43;;;;;;;3.30;1.30;;;;;;;6.13;100.00;99535.88;5073632;28;20556;-36
2023/04/13 02:58:10;;;;;;;3.70;1.67;;;;;;;6.21;100.00;99556.19;5073533;28;20036;-36
2023/04/13 03:00:37;;;;;;;4.80;1.35;;;;;;;6.13;100.00;99552.78;5073836;28;20299;-36
2023/04/13 03:03:03;;;;;;;2.65;1.20;;;;;;;6.14;100.00;99553.59;5073261;28;20024;-37
2023/04/13 03:05:32;;;;;;;3.45;1.55;;;;;;;6.10;100.00;99550.59;5073539;28;20028;-36
2023/04/13 03:07:58;;;;;;;4.80;1.33;;;;;;;6.07;100.00;99553.72;5073703;28;20029;-37
2023/04/13 03:10:23;;;;;;;;;;;;;;;6.15;100.00;99564.13;5074767;28;20073;-37
2023/04/13 03:12:49;;;;;;;4.13;1.80;;;;;;;6.09;100.00;99569.59;5073429;28;19904;-36
2023/04/13 03:15:17;;;;;;;4.35;1.60;;;;;;;6.04;100.00;99566.78;5073460;28;20035;-36
2023/04/13 03:17:42;;;;;;;6.00;1.70;;;;;;;6.06;100.00;99584.31;5073601;28;20025;-36
2023/04/13 03:20:14;;;;;;;3.97;1.70;;;;;;;6.10;100.00;99590.84;5073052;28;20028;-36
2023/04/13 03:22:39;;;;;;;2.97;1.17;;;;;;;6.06;100.00;99580.81;5073922;28;20040;-36
2023/04/13 03:25:07;;;;;;;3.97;1.55;;;;;;;6.06;100.00;99580.81;5073623;28;20079;-36
2023/04/13 03:27:32;;;;;;;3.25;1.20;;;;;;;6.06;100.00;99594.22;5073301;28;20372;-37
2023/04/13 03:29:58;;;;;;;2.85;1.50;;;;;;;6.04;100.00;99605.16;5073906;28;20020;-36
2023/04/13 03:32:24;;;;;;;2.80;1.30;;;;;;;5.86;100.00;99573.06;5073041;28;20012;-36
2023/04/13 03:34:50;;;;;;;3.85;1.50;;;;;;;6.03;100.00;99610.78;5073529;28;20365;-35
2023/04/13 03:37:15;;;;;;;;;;;;;;;6.07;100.00;99612.78;5074452;28;20107;-36
2023/04/13 03:39:41;;;;;;;2.97;1.23;;;;;;;6.02;100.00;99619.88;5073780;28;20300;-35
2023/04/13 03:42:06;;;;;;;4.13;1.70;;;;;;;5.99;100.00;99617.66;5073072;28;20404;-35
2023/04/13 03:44:32;;;;;;;3.97;1.87;;;;;;;5.92;100.00;99623.13;5105900;28;20028;-35
2023/04/13 03:46:57;;;;;;;5.22;2.10;;;;;;;5.86;100.00;99627.53;5074373;28;20464;-35
2023/04/13 03:49:23;;;;;;;3.43;2.20;;;;;;;5.84;100.00;99634.16;5076610;28;20114;-35
2023/04/13 03:51:48;;;;;;;5.90;2.87;;;;;;;5.76;100.00;99621.91;5076923;28;20024;-35
2023/04/13 03:54:13;;;;;;;4.53;2.30;;;;;;;5.77;100.00;99634.25;5077309;28;20024;-36
2023/04/13 03:56:39;;;;;;;4.83;2.57;;;;;;;5.79;100.00;99642.88;5077062;28;20104;-35
2023/04/13 03:59:04;;;;;;;4.55;2.53;;;;;;;5.78;100.00;99641.25;5076667;28;20048;-35
2023/04/13 04:01:30;;;;;;;5.50;2.70;;;;;;;5.76;100.00;99647.88;5075050;28;20094;-36
2023/04/13 04:03:56;;;;;;;3.83;2.80;;;;;;;5.72;100.00;99642.19;5076575;28;20066;-36
2023/04/13 04:06:22;;;;;;;4.93;2.72;;;;;;;5.75;100.00;99654.28;5077416;28;20024;-35
2023/04/13 04:08:48;;;;;;;5.93;3.25;;;;;;;5.76;100.00;99648.72;5076451;28;20082;-36
2023/04/13 04:11:15;;;;;;;4.57;3.13;;;;;;;5.76;100.00;99653.25;5076495;28;20043;-35
2023/04/13 04:13:40;;;;;;;5.40;3.13;;;;;;;5.75;100.00;99663.16;5076915;28;20025;-35
2023/04/13 04:16:07;;;;;;;6.97;3.50;;;;;;;5.68;100.00;99649.03;5076649;28;20025;-35
2023/04/13 04:18:33;;;;;;;4.35;3.15;;;;;;;5.74;100.00;99666.91;5076227;28;20035;-35
2023/04/13 04:20:58;;;;;;;7.15;3.55;;;;;;;5.75;100.00;99673.88;5076210;28;20021;-36
2023/04/13 04:23:27;;;;;;;5.13;3.33;;;;;;;5.69;100.00;99672.94;5076299;28;20021;-35
2023/04/13 04:25:52;;;;;;;7.13;3.33;;;;;;;5.79;100.00;99685.81;5076181;28;20086;-36
2023/04/13 04:28:18;;;;;;;8.63;3.33;;;;;;;5.79;100.00;99680.44;5075131;28;20028;-36
2023/04/13 04:30:44;;;;;;;5.00;3.20;;;;;;;5.79;100.00;99687.69;5075258;28;20067;-36
2023/04/13 04:33:10;;;;;;;5.82;3.25;;;;;;;5.79;100.00;99691.16;5076083;28;20415;-36
2023/04/13 04:35:42;;;;;;;;;;;;;;;5.81;100.00;99694.47;5077112;28;20082;-36
2023/04/13 04:38:08;;;;;;;7.72;3.80;;;;;;;5.79;100.00;99707.28;5075963;28;20341;-36
2023/04/13 04:40:36;;;;;;;6.45;3.35;;;;;;;5.77;100.00;99700.50;5076764;28;20052;-36
2023/04/13 04:43:03;;;;;;;7.45;3.88;;;;;;;5.75;100.00;99699.91;5075567;28;20023;-36
2023/04/13 04:45:31;;;;;;;7.18;3.05;;;;;;;5.73;100.00;99708.19;5075913;28;20134;-36
2023/04/13 04:47:57;;;;;;;5.90;3.08;;;;;;;5.75;100.00;99722.19;5076041;28;20619;-36
2023/04/13 04:50:22;;;;;;;5.90;2.95;;;;;;;5.75;100.00;99724.84;5076340;28;20123;-36
2023/04/13 04:52:48;;;;;;;5.35;2.90;;;;;;;5.73;100.00;99729.66;5075697;28;20024;-35
2023/04/13 04:55:13;;;;;;;6.87;3.00;;;;;;;5.68;100.00;99719.59;5075695;28;20017;-35
2023/04/13 04:57:39;;;;;;;5.27;2.90;;;;;;;5.71;100.00;99720.16;5075491;28;20024;-35
2023/04/13 05:00:17;;;;;;;6.73;2.83;;;;;;;5.74;100.00;99723.22;5076287;28;20275;-35
2023/04/13 05:02:42;;;;;;;7.03;2.72;;;;;;;5.72;100.00;99735.25;5076103;28;20262;-35
2023/04/13 05:05:08;;;;;;;6.78;3.20;;;;;;;5.72;100.00;99738.75;5075523;28;20368;-35
2023/04/13 05:07:34;;;;;;;5.63;3.00;;;;;;;5.70;100.00;99743.50;5075122;28;20346;-35
2023/04/13 05:09:59;;;;;;;5.22;2.58;;;;;;;5.69;100.00;99739.19;5075109;28;20017;-35
2023/04/13 05:12:25;;;;;;;5.82;2.70;;;;;;;5.62;100.00;99725.88;5075346;28;20107;-36
2023/04/13 05:14:50;;;;;;;8.33;3.60;;;;;;;5.73;100.00;99736.88;5076113;28;20391;-35
2023/04/13 05:17:17;;;;;;;7.03;3.47;;;;;;;5.78;100.00;99735.16;5075170;28;20104;-35
2023/04/13 05:19:45;;;;;;;6.40;3.20;;;;;;;5.83;100.00;99734.47;5075198;28;20031;-36
2023/04/13 05:22:12;;;;;;;4.60;3.03;;;;;;;5.88;100.00;99743.47;5074966;28;20024;-35
2023/04/13 05:24:38;;;;;;;7.22;3.38;;;;;;;5.89;100.00;99747.78;5075056;28;20028;-36
2023/04/13 05:27:04;;;;;;;9.02;4.53;;;;;;;5.91;100.00;99753.78;5075314;28;20050;-36
2023/04/13 05:29:29;;;;;;;7.00;3.70;;;;;;;5.90;100.00;99753.97;5074966;28;20066;-36
2023/04/13 05:31:58;;;;;;;7.03;3.60;;;;;;;5.89;100.00;99766.56;5075256;28;20437;-36
2023/04/13 05:34:24;;;;;;;5.00;3.10;;;;;;;5.89;100.00;99755.84;5074477;28;20440;-36
2023/04/13 05:36:49;;;;;;;5.65;3.33;;;;;;;5.97;100.00;99761.97;5074861;28;20064;-36
2023/04/13 05:39:14;;;;;;;5.37;3.73;;;;;;;5.94;100.00;99766.75;5074795;28;20064;-36
2023/04/13 05:41:40;;;;;;;4.63;2.97;;;;;;;5.99;100.00;99768.75;5075286;28;20367;-36
2023/04/13 05:44:05;;;;;;;4.00;3.03;;;;;;;5.98;100.00;99761.75;5074376;28;20021;-36
2023/04/13 05:46:31;;;;;;;7.00;3.23;;;;;;;6.10;100.00;99769.81;5074633;28;20020;-35
2023/04/13 05:48:58;;;;;;;6.17;3.10;;;;;;;6.13;100.00;99772.88;5074629;28;20303;-36
2023/04/13 05:51:24;;;;;;;9.25;3.75;;;;;;;6.13;100.00;99778.25;5075118;28;20328;-36
2023/04/13 05:53:49;;;;;;;5.57;2.90;;;;;;;6.12;100.00;99779.31;5073229;28;20028;-36
2023/04/13 05:56:15;;;;;;;4.23;3.27;;;;;;;6.20;100.00;99783.56;5075303;28;20059;-35
2023/04/13 05:58:40;;;;;;;5.33;2.50;;;;;;;6.27;100.00;99803.06;5074877;28;20020;-36
2023/04/13 06:01:06;;;;;;;6.22;2.80;;;;;;;6.25;100.00;99790.91;5073793;28;20048;-36
2023/04/13 06:03:33;;;;;;;5.43;2.80;;;;;;;6.28;100.00;99803.88;5074190;28;20021;-36
2023/04/13 06:05:59;;;;;;;5.18;2.30;;;;;;;6.30;100.00;99805.28;5074053;28;20457;-36
2023/04/13 06:08:31;;;;;;;5.65;2.90;;;;;;;6.22;100.00;99810.16;5074180;28;20051;-36
2023/04/13 06:10:57;;;;;;;5.40;2.15;;;;;;;6.25;100.00;99818.59;5073896;28;20530;-36
2023/04/13 06:13:22;;;;;;;5.15;2.22;;;;;;;6.26;100.00;99822.09;5074131;28;20025;-36
2023/04/13 06:15:48;;;;;;;5.53;2.07;;;;;;;6.23;100.00;99826.03;5073586;28;20508;-36
2023/04/13 06:18:13;;;;;;;5.05;2.95;;;;;;;6.25;100.00;99829.31;5074329;28;20055;-36
2023/04/13 06:20:38;;;;;;;4.83;2.50;;;;;;;6.26;100.00;99828.28;5073741;28;20400;-36
2023/04/13 06:23:04;;;;;;;5.97;2.47;;;;;;;6.23;100.00;99827.91;5073732;28;20028;-36
2023/04/13 06:25:30;;;;;;;4.97;2.07;;;;;;;6.25;100.00;99829.31;5074502;28;20052;-36
2023/04/13 06:27:55;;;;;;;4.70;2.25;;;;;;;6.35;100.00;99844.88;5073903;28;20058;-36
2023/04/13 06:30:21;;;;;;;4.47;1.77;;;;;;;6.40;100.00;99856.59;5074481;28;20028;-36
2023/04/13 06:32:46;;;;;;;5.97;2.20;;;;;;;6.40;100.00;99859.25;5073872;28;20070;-36
2023/04/13 06:35:12;;;;;;;3.43;1.67;;;;;;;6.39;100.00;99859.47;5073703;28;20025;-36
2023/04/13 06:37:38;;;;;;;5.33;1.83;;;;;;;6.36;100.00;99858.06;5074381;28;20406;-36
2023/04/13 06:40:14;;;;;;;3.28;1.90;;;;;;;6.36;100.00;99862.63;5074251;28;20036;-36
2023/04/13 06:42:40;;;;;;;4.70;1.85;;;;;;;6.34;100.00;99862.84;5074352;28;20017;-36
2023/04/13 06:45:10;;;;;;;4.60;2.22;;;;;;;6.33;100.00;99863.88;5072820;28;20510;-36
2023/04/13 06:47:39;;;;;;;3.60;2.20;;;;;;;6.35;100.00;99879.78;5074282;28;20020;-36
2023/04/13 06:50:06;;;;;;;4.35;2.38;;;;;;;6.24;100.00;99865.25;5073970;28;20024;-36
2023/04/13 06:52:35;;;;;;;5.38;2.17;;;;;;;6.28;100.00;99871.81;5073578;28;20020;-36
2023/04/13 06:55:01;;;;;;;5.82;2.70;;;;;;;6.40;100.00;99883.44;5073225;28;20352;-36
2023/04/13 06:57:28;;;;;;;4.57;2.60;;;;;;;6.32;100.00;99877.56;5073625;28;20021;-35
2023/04/13 06:59:53;;;;;;;;;;;;;;;6.43;100.00;99891.03;5073896;28;20016;-36
2023/04/13 07:02:18;;;;;;;4.00;2.20;;;;;;;6.40;100.00;99891.50;5073852;28;20255;-35
2023/04/13 07:04:44;;;;;;;4.70;2.20;;;;;;;6.45;100.00;99894.31;5074124;28;20029;-35
2023/04/13 07:07:09;;;;;;;7.33;2.50;;;;;;;6.41;100.00;99887.75;5073729;28;20027;-35
2023/04/13 07:09:35;;;;;;;3.90;1.88;;;;;;;6.50;100.00;99892.81;5074340;28;20024;-35
2023/04/13 07:12:04;;;;;;;5.73;2.10;;;;;;;6.51;100.00;99902.50;5073491;28;20096;-35
2023/04/13 07:14:34;;;;;;;6.15;2.35;;;;;;;6.54;100.00;99905.56;5073966;28;20052;-45
2023/04/13 07:17:00;;;;;;;5.28;2.22;;;;;;;6.61;100.00;99924.28;5073163;28;20047;-36
2023/04/13 07:19:26;;;;;;;5.38;2.03;;;;;;;6.68;100.00;99919.63;5073370;28;20025;-36
2023/04/13 07:21:51;;;;;;;6.45;2.28;;;;;;;6.60;100.00;99903.84;5073871;28;20031;-36
2023/04/13 07:24:17;;;;;;;5.53;2.10;;;;;;;6.69;100.00;99918.59;5077662;28;20111;-36
2023/04/13 07:26:43;;;;;;;5.63;2.15;;;;;;;6.68;100.00;99906.19;5077935;28;20024;-36
2023/04/13 07:29:12;;;;;;;8.50;2.33;;;;;;;6.87;100.00;99933.81;5077299;28;20456;-35
2023/04/13 07:31:38;;;;;;;7.93;2.83;;;;;;;6.94;100.00;99932.69;5077315;28;20652;-35
2023/04/13 07:34:04;;;;;;;6.88;2.55;;;;;;;7.01;100.00;99937.13;5078009;28;20111;-35
2023/04/13 07:36:30;;;;;;;7.30;2.30;;;;;;;7.08;100.00;99948.63;5077711;28;20036;-36
2023/04/13 07:38:56;;;;;;;9.77;2.85;;;;;;;7.16;100.00;99951.78;5077094;28;20031;-35
2023/04/13 07:41:23;;;;;;;6.05;2.20;;;;;;;7.14;100.00;99940.47;5076982;28;20095;-35
2023/04/13 07:43:49;;;;;;;7.97;2.65;;;;;;;7.24;100.00;99964.09;5076651;28;20016;-36
2023/04/13 07:46:15;;;;;;;9.02;2.58;;;;;;;7.27;100.00;99960.94;5076701;28;20049;-36
2023/04/13 07:48:40;;;;;;;6.60;2.35;;;;;;;7.33;100.00;99969.97;5076895;28;20025;-35
2023/04/13 07:51:15;;;;;;;11.63;3.35;;;;;;;7.39;100.00;99974.41;5076911;28;20404;-35
2023/04/13 07:53:40;;;;;;;5.80;2.20;;;;;;;7.43;100.00;99976.41;5076830;28;20017;-36
2023/04/13 07:56:06;;;;;;;8.27;2.43;;;;;;;7.47;100.00;99980.28;5076791;28;20032;-36
2023/04/13 07:58:32;;;;;;;6.75;2.80;;;;;;;7.53;100.00;99983.91;5076759;28;20274;-36
2023/04/13 08:00:57;;;;;;;8.53;2.90;;;;;;;7.57;100.00;99992.34;5076954;28;20360;-36
2023/04/13 08:03:22;;;;;;;8.00;2.43;;;;;;;7.60;100.00;99986.47;5076686;28;20048;-36
2023/04/13 08:05:48;;;;;;;10.00;2.90;;;;;;;7.64;100.00;99998.44;5076648;28;20021;-36
2023/04/13 08:08:13;;;;;;;8.57;2.30;;;;;;;7.70;100.00;99998.31;5076325;28;20032;-36
2023/04/13 08:10:38;;;;;;;8.17;2.70;;;;;;;7.72;100.00;99998.91;5076868;28;20020;-35
2023/04/13 08:13:04;;;;;;;7.60;2.45;;;;;;;7.78;100.00;100004.41;5076471;28;20039;-36
2023/04/13 08:15:29;;;;;;;6.10;1.83;;;;;;;7.89;100.00;100009.78;5077304;28;20098;-36
2023/04/13 08:17:55;;;;;;;6.87;2.53;;;;;;;7.94;100.00;100020.69;5076384;28;20047;-35
2023/04/13 08:20:20;;;;;;;6.47;1.92;;;;;;;7.93;100.00;100021.75;5075941;28;20318;-36
2023/04/13 08:22:46;;;;;;;9.00;2.23;;;;;;;7.96;100.00;100026.66;5076362;28;20017;-36
2023/04/13 08:25:11;;;;;;;6.70;2.27;;;;;;;7.94;100.00;100030.63;5076044;28;20021;-45
2023/04/13 08:27:36;;;;;;;7.50;2.70;;;;;;;7.94;100.00;100031.44;5076273;28;20273;-36
2023/04/13 08:30:04;;;;;;;7.50;2.10;;;;;;;7.97;100.00;100044.44;5076275;28;20444;-35
2023/04/13 08:32:29;;;;;;;8.10;2.22;;;;;;;7.99;100.00;100036.94;5075695;28;20021;-36
2023/04/13 08:34:55;;;;;;;8.73;2.20;;;;;;;8.02;100.00;100053.72;5074794;28;20384;-36
2023/04/13 08:37:20;;;;;;;12.33;2.40;;;;;;;8.00;100.00;100041.31;5076019;28;20270;-35
2023/04/13 08:39:47;;;;;;;10.17;2.07;;;;;;;8.12;100.00;100057.44;5076047;28;20032;-35
2023/04/13 08:42:13;;;;;;;9.52;2.63;;;;;;;8.14;100.00;100065.28;5074591;28;20366;-36
2023/04/13 08:44:39;;;;;;;9.73;1.80;;;;;;;8.19;100.00;100066.22;5076302;28;20077;-36
2023/04/13 08:47:04;;;;;;;15.80;2.70;;;;;;;8.27;100.00;100070.44;5076427;28;20391;-36
2023/04/13 08:49:31;;;;;;;7.77;2.27;;;;;;;8.28;100.00;100058.63;5075881;28;20051;-36
2023/04/13 08:51:58;;;;;;;7.45;2.15;;;;;;;8.39;100.00;100057.81;5075846;28;20488;-36
2023/04/13 08:54:27;;;;;;;8.10;2.55;;;;;;;8.46;100.00;100060.41;5075973;28;20096;-35
2023/04/13 08:56:53;;;;;;;7.90;2.42;;;;;;;8.62;100.00;100085.81;5075962;28;20025;-36
2023/04/13 08:59:20;;;;;;;12.65;2.88;;;;;;;8.77;100.00;100086.13;5075880;28;20083;-35
2023/04/13 09:01:47;;;;;;;8.80;3.05;;;;;;;8.87;100.00;100093.59;5073869;28;20049;-36
2023/04/13 09:04:16;;;;;;;6.55;2.28;;;;;;;9.00;100.00;100094.16;5075233;28;20078;-36
2023/04/13 09:06:42;;;;;;;9.90;2.72;;;;;;;9.08;100.00;100100.22;5075804;28;20024;-36
2023/04/13 09:09:15;;;;;;;7.60;2.50;;;;;;;9.03;100.00;100088.31;5075502;28;20082;-36
2023/04/13 09:11:42;;;;;;;8.95;2.42;;;;;;;9.14;100.00;100110.91;5075416;28;20361;-36
2023/04/13 09:14:07;;;;;;;;;;;;;;;9.29;100.00;100121.16;5076053;28;20103;-36
2023/04/13 09:16:40;;;;;;;8.57;2.40;;;;;;;9.33;100.00;100110.72;5074338;28;19958;-36
2023/04/13 09:19:07;;;;;;;10.45;2.42;;;;;;;9.36;100.00;100119.13;5074920;28;20027;-36
2023/04/13 09:21:37;;;;;;;9.57;2.22;;;;;;;9.23;100.00;100114.03;5074811;28;20082;-36
2023/04/13 09:24:04;;;;;;;6.95;1.88;;;;;;;9.25;100.00;100125.41;5075676;28;20100;-36
2023/04/13 09:26:46;;;;;;;7.30;2.45;;;;;;;9.32;100.00;100125.25;5075337;28;20021;-36
2023/04/13 09:29:15;;;;;;;10.50;3.08;;;;;;;9.24;100.00;100139.94;5075060;28;20036;-36
2023/04/13 09:31:41;;;;;;;7.85;2.40;;;;;;;9.21;100.00;100135.03;5075230;28;20461;-36
2023/04/13 09:34:07;;;;;;;9.82;2.20;;;;;;;9.14;100.00;100148.66;5074947;28;20024;-36
2023/04/13 09:36:33;;;;;;;9.93;1.73;;;;;;;9.08;100.00;100148.78;5073971;28;20017;-36
2023/04/13 09:38:58;;;;;;;;;;;;;;;9.14;100.00;100161.31;5073939;28;20448;-36
2023/04/13 09:41:45;;;;;;;8.20;2.03;;;;;;;9.02;100.00;100161.34;5075063;28;19908;-36
2023/04/13 09:44:26;;;;;;;6.90;2.05;;;;;;;8.95;100.00;100153.38;5074038;28;20514;-36
2023/04/13 09:47:02;;;;;;;8.55;2.28;;;;;;;9.15;100.00;100171.88;5074565;28;20063;-36
2023/04/13 09:49:38;;;;;;;7.40;2.10;;;;;;;9.30;100.00;100179.47;5074391;28;20373;-36
2023/04/13 09:52:21;;;;;;;9.93;2.53;;;;;;;9.41;100.00;100183.19;5074861;28;20021;-36
2023/04/13 09:54:56;;;;;;;6.63;2.33;;;;;;;9.52;100.00;100185.88;5074226;28;20028;-36
2023/04/13 09:57:26;;;;;;;7.93;2.08;;;;;;;9.52;100.00;100191.25;5075029;28;20361;-36
2023/04/13 09:59:52;;;;;;;5.45;1.73;;;;;;;9.46;100.00;100194.91;5074258;28;20028;-36
2023/04/13 10:02:18;;;;;;;9.85;2.10;;;;;;;9.34;100.00;100202.22;5074952;28;20024;-36
2023/04/13 10:04:44;;;;;;;8.45;2.13;;;;;;;9.25;100.00;100214.44;5074059;28;20025;-36
2023/04/13 10:07:10;;;;;;;;;;;;;;;9.21;100.00;100215.97;5075601;28;20027;-36
2023/04/13 10:09:36;;;;;;;6.95;1.70;;;;;;;9.05;100.00;100222.91;5073908;28;20363;-36
2023/04/13 10:12:03;;;;;;;7.55;1.80;;;;;;;9.05;100.00;100222.09;5074194;28;20031;-36
2023/04/13 10:14:38;;;;;;;7.95;1.90;;;;;;;9.07;100.00;100236.16;5074101;28;20024;-36
2023/04/13 10:17:25;;;;;;;9.90;2.08;;;;;;;9.12;100.00;100238.94;5073918;28;20017;-36
2023/04/13 10:19:52;;;;;;;7.65;2.00;;;;;;;9.10;100.00;100241.91;5074478;28;20096;-36
2023/04/13 10:22:21;;;;;;;8.05;2.10;;;;;;;9.13;100.00;100251.41;5073993;28;20024;-36
2023/04/13 10:24:47;;;;;;;7.43;2.00;;;;;;;9.05;100.00;100232.88;5073746;28;20472;-37
2023/04/13 10:27:20;;;;;;;7.35;2.03;;;;;;;9.21;100.00;100249.16;5074284;28;20059;-37
2023/04/13 10:29:46;;;;;;;9.95;2.30;;;;;;;9.32;100.00;100249.38;5073969;28;20112;-36
2023/04/13 10:32:23;;;;;;;10.45;2.20;;;;;;;9.44;99.22;100256.41;5073646;28;20060;-36
2023/04/13 10:34:49;;;;;;;;;;;;;;;9.49;99.45;100256.50;5074881;28;20028;-36
2023/04/13 10:37:20;;;;;;;6.85;1.90;;;;;;;9.42;97.87;100266.63;5072887;28;20249;-36
2023/04/13 10:39:46;;;;;;;9.57;2.67;;;;;;;9.41;99.16;100273.03;5074099;28;20024;-35
2023/04/13 10:42:12;;;;;;;8.02;3.13;;;;;;;9.36;100.00;100269.44;5074323;28;20020;-36
2023/04/13 10:44:44;;;;;;;8.82;2.25;;;;;;;9.38;100.00;100278.94;5073418;28;20031;-36
2023/04/13 10:47:10;;;;;;;7.93;2.60;;;;;;;9.40;100.00;100282.22;5074316;28;20403;-36
2023/04/13 10:49:36;;;;;;;8.00;2.10;;;;;;;9.44;100.00;100291.47;5074446;28;20024;-36
2023/04/13 10:52:02;;;;;;;11.02;2.63;;;;;;;9.41;100.00;100288.44;5074004;28;20031;-36
2023/04/13 10:54:29;;;;;;;9.32;2.20;;;;;;;9.43;100.00;100297.13;5073658;28;20099;-36
2023/04/13 10:57:00;;;;;;;6.32;2.13;;;;;;;9.41;99.77;100297.34;5073736;28;20331;-36
2023/04/13 10:59:40;;;;;;;8.77;2.15;;;;;;;9.40;99.23;100303.78;5073326;28;20036;-36
2023/04/13 11:02:14;;;;;;;6.72;1.80;;;;;;;9.40;98.49;100303.78;5074067;28;20051;-36
2023/04/13 11:04:41;;;;;;;7.82;2.30;;;;;;;9.42;95.70;100308.94;5073138;28;20016;-37
2023/04/13 11:07:12;;;;;;;7.82;2.03;;;;;;;9.47;97.35;100323.41;5073813;28;20042;-37
2023/04/13 11:09:38;;;;;;;7.47;1.90;;;;;;;9.47;94.34;100330.69;5073132;28;20099;-36
2023/04/13 11:12:06;;;;;;;9.13;2.55;;;;;;;9.39;93.72;100309.44;5073497;28;20063;-36
2023/04/13 11:14:31;;;;;;;5.10;1.65;;;;;;;9.52;91.76;100325.41;5073148;28;20021;-36
2023/04/13 11:16:57;;;;;;;8.13;1.83;;;;;;;9.55;91.27;100331.13;5073177;28;20089;-36
2023/04/13 11:19:22;;;;;;;8.02;2.53;;;;;;;9.59;92.70;100317.16;5073385;28;20035;-36
2023/04/13 11:21:56;;;;;;;8.13;2.20;;;;;;;9.78;92.35;100334.84;5073436;28;20028;-36
2023/04/13 11:24:26;;;;;;;6.30;1.67;;;;;;;9.94;92.50;100326.00;5074173;28;20104;-36
2023/04/13 11:26:53;;;;;;;7.00;2.20;;;;;;;10.10;92.25;100329.00;5073390;28;20048;-36
2023/04/13 11:29:23;;;;;;;8.13;1.90;;;;;;;10.26;92.34;100328.28;5072043;28;20048;-36
2023/04/13 11:31:49;;;;;;;6.82;1.77;;;;;;;10.40;90.73;100328.81;5073869;28;20498;-36
2023/04/13 11:34:27;;;;;;;10.38;2.65;;;;;;;10.62;92.71;100321.63;5072926;28;20033;-36
2023/04/13 11:37:00;;;;;;;14.63;3.30;;;;;;;10.93;93.67;100311.31;5073234;28;20020;-36
2023/04/13 11:39:27;;;;;;;10.05;2.20;;;;;;;11.23;88.92;100327.22;5072917;28;20530;-36
2023/04/13 11:41:52;;;;;;;5.97;1.83;;;;;;;11.31;85.95;100318.66;5073431;28;20063;-36
2023/04/13 11:44:18;;;;;;;9.77;2.20;;;;;;;11.30;85.25;100314.34;5073981;28;20383;-36
2023/04/13 11:46:43;;;;;;;7.27;2.07;;;;;;;11.10;85.92;100328.38;5073247;28;20251;-36
2023/04/13 11:49:09;;;;;;;5.57;1.80;;;;;;;10.96;86.34;100332.47;5073681;28;20271;-36